Time;durP1;ratioP1;P1;durP2;ratioP2;P2;SDS_P1;SDS_P2;PMS_P1;PMS_P2;Temp;Humidity;BMP_temperature;BMP_pressure;BME280_temperature;BME280_humidity;BME280_pressure;Samples;Min_cycle;Max_cycle;Signal;HPM_P1;HPM_P2
2019/05/07 00:02:05;;;;;;;17.2;11.3;;;;;;;8.67;62.81445;964.0903;;;;
2019/05/07 00:04:22;;;;;;;12.8;9.9;;;;;;;8.56;63.00781;964.0958;;;;
2019/05/07 00:06:47;;;;;;;15.1;10.1;;;;;;;8.61;63.02734;964.0964;;;;
2019/05/07 00:09:14;;;;;;;14.6;10.3;;;;;;;8.67;62.81543;964.0851;;;;
2019/05/07 00:11:39;;;;;;;12.5;9.8;;;;;;;8.82;61.92676;964.0823;;;;
2019/05/07 00:14:04;;;;;;;14.5;9.5;;;;;;;8.86;61.80273;964.0463;;;;
2019/05/07 00:16:29;;;;;;;11.5;9.5;;;;;;;8.88;61.92285;964.0773;;;;
2019/05/07 00:18:55;;;;;;;14.3;9.8;;;;;;;8.91;61.78809;964.0931;;;;
2019/05/07 00:21:20;;;;;;;13.4;9.7;;;;;;;8.93;62.32813;963.983;;;;
2019/05/07 00:23:45;;;;;;;14;9.6;;;;;;;8.98;62.00684;964.0574;;;;
2019/05/07 00:26:10;;;;;;;13.1;9.7;;;;;;;9.06;61.50488;964.0307;;;;
2019/05/07 00:28:35;;;;;;;15.1;9.4;;;;;;;9.14;61.25977;963.9777;;;;
2019/05/07 00:31:00;;;;;;;15.2;9.9;;;;;;;9.22;60.87305;964.0042;;;;
2019/05/07 00:33:25;;;;;;;12.7;9.9;;;;;;;9.18;60.90332;964.0183;;;;
2019/05/07 00:36:33;;;;;;;15.5;10;;;;;;;9.2;60.95215;964.012;;;;
2019/05/07 00:38:16;;;;;;;12.7;9.5;;;;;;;9.23;60.77051;963.9498;;;;
2019/05/07 00:40:47;;;;;;;12.9;9.4;;;;;;;9.21;60.5791;963.9317;;;;
2019/05/07 00:43:12;;;;;;;13;9.4;;;;;;;9.23;60.06934;963.942;;;;
2019/05/07 00:45:40;;;;;;;12.6;9.5;;;;;;;9.25;59.9668;963.9604;;;;
2019/05/07 00:47:56;;;;;;;12.2;9.7;;;;;;;9.22;59.83301;963.9522;;;;
2019/05/07 00:50:26;;;;;;;12.9;9.8;;;;;;;9.19;59.94629;963.9522;;;;
2019/05/07 00:52:46;;;;;;;12.6;9.6;;;;;;;9.16;59.87109;963.9274;;;;
2019/05/07 00:55:12;;;;;;;13.9;9.2;;;;;;;9.13;59.89063;963.9494;;;;
2019/05/07 00:57:37;;;;;;;11.7;9.1;;;;;;;9.13;59.58691;963.9714;;;;
2019/05/07 01:00:02;;;;;;;13.9;9.9;;;;;;;9.1;59.65332;963.9634;;;;
2019/05/07 01:02:27;;;;;;;13.9;9.6;;;;;;;9.05;59.91504;963.9592;;;;
2019/05/07 01:04:53;;;;;;;14.3;9.5;;;;;;;9.01;59.73438;963.9563;;;;
2019/05/07 01:07:18;;;;;;;12.9;9.4;;;;;;;9;59.58105;963.9367;;;;
2019/05/07 01:09:44;;;;;;;13.1;9.7;;;;;;;8.94;59.31641;963.9288;;;;
2019/05/07 01:12:09;;;;;;;13.6;9.5;;;;;;;8.91;59.3125;963.9503;;;;
2019/05/07 01:14:34;;;;;;;12.5;9.2;;;;;;;8.88;59.34277;963.8906;;;;
2019/05/07 01:16:59;;;;;;;12.7;9.6;;;;;;;8.83;59.75586;963.8475;;;;
2019/05/07 01:19:24;;;;;;;11.7;9.3;;;;;;;8.81;59.84766;963.9369;;;;
2019/05/07 01:21:49;;;;;;;13.5;9.4;;;;;;;8.78;59.82031;963.8899;;;;
2019/05/07 01:24:14;;;;;;;12.7;9.7;;;;;;;8.76;59.72363;963.9235;;;;
2019/05/07 01:26:40;;;;;;;12.3;9.5;;;;;;;8.71;59.82129;963.9063;;;;
2019/05/07 01:29:05;;;;;;;13.9;9.5;;;;;;;8.62;60.03125;963.899;;;;
2019/05/07 01:31:32;;;;;;;12.1;9.4;;;;;;;8.63;59.54199;963.8928;;;;
2019/05/07 01:34:03;;;;;;;13.3;9.3;;;;;;;8.63;59.22656;963.9459;;;;
2019/05/07 01:36:20;;;;;;;12.3;9.3;;;;;;;8.61;59.53906;963.9406;;;;
2019/05/07 01:38:45;;;;;;;12.1;9;;;;;;;8.59;59.63086;963.921;;;;
2019/05/07 01:41:11;;;;;;;12.7;9.8;;;;;;;8.56;59.74219;963.9779;;;;
2019/05/07 01:43:36;;;;;;;13.1;9.9;;;;;;;8.45;60.4043;963.9135;;;;
2019/05/07 01:46:03;;;;;;;12.5;9.7;;;;;;;8.4;60.52441;963.9271;;;;
2019/05/07 01:48:28;;;;;;;11.6;8.9;;;;;;;8.39;59.96289;963.8505;;;;
2019/05/07 01:50:53;;;;;;;13;9.2;;;;;;;8.33;60.52734;963.8553;;;;
2019/05/07 01:53:18;;;;;;;14.1;10;;;;;;;8.27;60.91504;963.8517;;;;
2019/05/07 01:55:43;;;;;;;14.5;10.2;;;;;;;8.28;60.99609;963.8167;;;;
2019/05/07 01:58:09;;;;;;;14.9;10;;;;;;;8.17;61.62207;963.7731;;;;
2019/05/07 02:00:34;;;;;;;13;10.1;;;;;;;8.13;61.82617;963.897;;;;
2019/05/07 02:03:05;;;;;;;12.6;10.1;;;;;;;8.09;62.10059;963.9072;;;;
2019/05/07 02:05:35;;;;;;;12.7;9.6;;;;;;;8.1;60.84375;963.8929;;;;
2019/05/07 02:07:53;;;;;;;11.9;9.4;;;;;;;8.14;60.7666;963.9387;;;;
2019/05/07 02:11:14;;;;;;;12.1;9.7;;;;;;;8.17;60.88867;963.834;;;;
2019/05/07 02:12:42;;;;;;;13.1;9.8;;;;;;;8.16;60.68848;963.8092;;;;
2019/05/07 02:15:07;;;;;;;13.4;9.5;;;;;;;8.13;60.4043;963.8582;;;;
2019/05/07 02:17:33;;;;;;;13.2;9.2;;;;;;;8.17;59.96875;963.7381;;;;
2019/05/07 02:19:58;;;;;;;12.6;9.7;;;;;;;8.17;60.13086;963.7213;;;;
2019/05/07 02:22:23;;;;;;;13.3;9.6;;;;;;;8.09;60.52637;963.8086;;;;
2019/05/07 02:24:48;;;;;;;13;9.5;;;;;;;8.07;60.48828;963.8033;;;;
2019/05/07 02:27:14;;;;;;;11.6;9.3;;;;;;;8.08;60.05957;963.688;;;;
2019/05/07 02:29:39;;;;;;;14.6;10.3;;;;;;;8.01;60.7373;963.7081;;;;
2019/05/07 02:32:04;;;;;;;13.3;9.7;;;;;;;7.91;61.21289;963.6902;;;;
2019/05/07 02:34:29;;;;;;;12.5;9.6;;;;;;;7.91;60.86328;963.755;;;;
2019/05/07 02:36:55;;;;;;;11.7;9.4;;;;;;;7.94;60.04004;963.7073;;;;
2019/05/07 02:39:25;;;;;;;11.4;9.5;;;;;;;7.93;60.70313;963.6919;;;;
2019/05/07 02:41:45;;;;;;;12;9.4;;;;;;;7.9;61.12891;963.6746;;;;
2019/05/07 02:44:11;;;;;;;11.3;9.5;;;;;;;7.85;61.14648;963.7001;;;;
2019/05/07 02:46:49;;;;;;;11.4;9.7;;;;;;;7.77;61.58887;963.7303;;;;
2019/05/07 02:49:06;;;;;;;13.7;10;;;;;;;7.71;61.70801;963.6492;;;;
2019/05/07 02:51:30;;;;;;;12.5;9.9;;;;;;;7.69;61.65918;963.6298;;;;
2019/05/07 02:53:56;;;;;;;11.4;8.9;;;;;;;7.75;61.12109;963.5991;;;;
2019/05/07 02:56:17;;;;;;;12.1;9.4;;;;;;;7.75;60.56152;963.616;;;;
2019/05/07 02:58:42;;;;;;;13.2;9.5;;;;;;;7.74;60.18848;963.5394;;;;
2019/05/07 03:01:07;;;;;;;10.5;8.8;;;;;;;7.73;60.23242;963.6288;;;;
2019/05/07 03:03:33;;;;;;;12.7;9.2;;;;;;;7.74;60.34961;963.7003;;;;
2019/05/07 03:05:58;;;;;;;12;9.4;;;;;;;7.73;60.19824;963.5887;;;;
2019/05/07 03:08:25;;;;;;;12.4;9.3;;;;;;;7.69;60.37891;963.6827;;;;
2019/05/07 03:10:50;;;;;;;13.1;9.2;;;;;;;7.61;61.10059;963.6133;;;;
2019/05/07 03:13:17;;;;;;;11.4;8.9;;;;;;;7.62;60.71777;963.611;;;;
2019/05/07 03:15:42;;;;;;;10.6;9;;;;;;;7.65;60.88477;963.6021;;;;
2019/05/07 03:18:07;;;;;;;12;8.6;;;;;;;7.66;60.54785;963.5362;;;;
2019/05/07 03:20:45;;;;;;;14.7;11.4;;;;;;;7.5;61.92285;963.5435;;;;
2019/05/07 03:22:58;;;;;;;14.9;10.8;;;;;;;7.36;62.1582;963.5068;;;;
2019/05/07 03:25:26;;;;;;;13.7;9.5;;;;;;;7.25;62.27051;963.5626;;;;
2019/05/07 03:27:48;;;;;;;13.1;9.6;;;;;;;7.32;62.03613;963.5466;;;;
2019/05/07 03:30:21;;;;;;;13.1;9.9;;;;;;;7.3;62.49902;963.4983;;;;
2019/05/07 03:32:41;;;;;;;13.4;10;;;;;;;7.23;62.63867;963.5181;;;;
2019/05/07 03:35:23;;;;;;;13.3;9.8;;;;;;;7.26;62.38867;963.5172;;;;
2019/05/07 03:37:29;;;;;;;12.1;9.8;;;;;;;7.26;61.93359;963.4874;;;;
2019/05/07 03:39:53;;;;;;;12.9;10;;;;;;;7.23;62.06934;963.4573;;;;
2019/05/07 03:42:18;;;;;;;13.5;10.1;;;;;;;7.14;62.58105;963.4756;;;;
2019/05/07 03:45:06;;;;;;;12;10;;;;;;;7.12;62.41406;963.5051;;;;
2019/05/07 03:53:59;;;;;;;14;10.3;;;;;;;6.91;63.0332;963.5089;;;;
2019/05/07 03:56:24;;;;;;;11.6;9.4;;;;;;;6.93;62.44434;963.4406;;;;
2019/05/07 03:58:51;;;;;;;13.7;9.4;;;;;;;7.03;62.09961;963.4766;;;;
2019/05/07 04:02:27;;;;;;;13.1;9.8;;;;;;;7.02;62.35254;963.5;;;;
2019/05/07 04:04:52;;;;;;;13.3;9.3;;;;;;;7.07;62.20898;963.4875;;;;
2019/05/07 04:07:20;;;;;;;11.9;9.7;;;;;;;7.11;62.0293;963.4894;;;;
2019/05/07 04:09:45;;;;;;;11.1;9.3;;;;;;;7.13;61.28613;963.4483;;;;
2019/05/07 04:12:10;;;;;;;11.7;9;;;;;;;7.18;61.25879;963.4916;;;;
2019/05/07 04:14:35;;;;;;;14;10.7;;;;;;;7.16;61.95605;963.5161;;;;
2019/05/07 04:17:00;;;;;;;14;10.5;;;;;;;7.09;62.26953;963.4583;;;;
2019/05/07 04:19:27;;;;;;;12.3;10.1;;;;;;;7.07;62.5332;963.4706;;;;
2019/05/07 04:21:52;;;;;;;16.1;10.3;;;;;;;7.05;62.6123;963.4653;;;;
2019/05/07 04:24:26;;;;;;;11.9;9.8;;;;;;;7.08;62.36133;963.4903;;;;
2019/05/07 04:26:51;;;;;;;13.7;9.5;;;;;;;7.16;61.97852;963.4772;;;;
2019/05/07 04:29:15;;;;;;;12.1;9.2;;;;;;;7.25;61.86328;963.4238;;;;
2019/05/07 04:31:38;;;;;;;10.2;8.7;;;;;;;7.32;62.00195;963.452;;;;
2019/05/07 04:34:09;;;;;;;12.3;9.9;;;;;;;7.31;62.34766;963.4414;;;;
2019/05/07 04:36:32;;;;;;;13;9.6;;;;;;;7.36;62.23926;963.4939;;;;
2019/05/07 04:38:54;;;;;;;14.3;9.8;;;;;;;7.39;61.77832;963.502;;;;
2019/05/07 04:41:19;;;;;;;11.7;9.2;;;;;;;7.42;61.86426;963.5528;;;;
2019/05/07 04:43:44;;;;;;;13.4;9.7;;;;;;;7.46;61.7998;963.5168;;;;
2019/05/07 04:46:09;;;;;;;14;10.4;;;;;;;7.5;62.09668;963.5447;;;;
2019/05/07 04:48:34;;;;;;;13;10.2;;;;;;;7.49;62.5957;963.5289;;;;
2019/05/07 04:51:01;;;;;;;13.5;9.8;;;;;;;7.54;62.37109;963.5764;;;;
2019/05/07 04:53:27;;;;;;;13.6;10.2;;;;;;;7.62;62.24316;963.6239;;;;
2019/05/07 04:55:52;;;;;;;13.5;9.9;;;;;;;7.73;62.24609;963.59;;;;
2019/05/07 04:58:18;;;;;;;11.9;9.6;;;;;;;7.79;62.15039;963.6657;;;;
2019/05/07 05:00:43;;;;;;;12.1;9.5;;;;;;;7.79;62.38184;963.628;;;;
2019/05/07 05:03:19;;;;;;;13.7;9.3;;;;;;;7.85;62.32227;963.6522;;;;
2019/05/07 05:05:33;;;;;;;12.3;9.4;;;;;;;7.92;62.14551;963.6501;;;;
2019/05/07 05:07:58;;;;;;;12.3;9.6;;;;;;;7.97;62.44531;963.7026;;;;
2019/05/07 05:10:23;;;;;;;13.8;9.7;;;;;;;7.98;62.52637;963.6572;;;;
2019/05/07 05:12:48;;;;;;;11.4;9;;;;;;;8.07;62.64453;963.6736;;;;
2019/05/07 05:17:48;;;;;;;11.7;8.8;;;;;;;8.01;62.81152;963.704;;;;
2019/05/07 05:20:14;;;;;;;12.4;9.5;;;;;;;7.88;63.59766;963.7419;;;;
2019/05/07 05:25:12;;;;;;;16.5;11.6;;;;;;;7.75;64.55566;963.7715;;;;
2019/05/07 05:27:31;;;;;;;12.7;9.2;;;;;;;7.56;64.48047;963.8108;;;;
2019/05/07 05:29:58;;;;;;;13.1;10;;;;;;;7.85;64.37109;963.7739;;;;
2019/05/07 05:32:23;;;;;;;11.8;9.2;;;;;;;8.01;63.52246;963.778;;;;
2019/05/07 05:34:48;;;;;;;12.1;8.7;;;;;;;8.12;62.68848;963.7246;;;;
2019/05/07 05:37:13;;;;;;;14.5;9.9;;;;;;;8.16;62.90332;963.6925;;;;
2019/05/07 05:39:38;;;;;;;13.4;9.2;;;;;;;8.05;62.89941;963.6889;;;;
2019/05/07 05:42:15;;;;;;;13.5;9;;;;;;;8.19;63.32813;963.7578;;;;
2019/05/07 05:44:31;;;;;;;12.7;8.8;;;;;;;8.07;63.51953;963.8072;;;;
2019/05/07 05:46:55;;;;;;;11.4;8.6;;;;;;;8.39;62.48047;963.7169;;;;
2019/05/07 05:49:21;;;;;;;11.8;9.1;;;;;;;8.42;61.74023;963.7586;;;;
2019/05/07 05:52:36;;;;;;;13.8;9;;;;;;;8.68;61.13672;963.7076;;;;
2019/05/07 05:56:46;;;;;;;14.2;8.7;;;;;;;8.93;59.78223;963.8142;;;;
2019/05/07 06:02:20;;;;;;;11.4;8.6;;;;;;;9.16;58.54102;963.8404;;;;
2019/05/07 06:04:31;;;;;;;10.6;7.9;;;;;;;9.32;59.48535;963.827;;;;
2019/05/07 06:06:25;;;;;;;13.3;8.2;;;;;;;9.09;58.88184;963.7569;;;;
2019/05/07 06:08:54;;;;;;;12;8;;;;;;;9.24;57.27734;963.8226;;;;
2019/05/07 06:11:26;;;;;;;12.1;8.2;;;;;;;9.39;57.89453;963.8494;;;;
2019/05/07 06:13:38;;;;;;;11;8.1;;;;;;;9.48;56.84277;963.7482;;;;
2019/05/07 06:16:35;;;;;;;10.3;7.5;;;;;;;9.47;57.34277;963.8536;;;;
2019/05/07 06:20:58;;;;;;;11.7;7.2;;;;;;;9.86;55.82617;963.8625;;;;
2019/05/07 06:25:39;;;;;;;11.7;7.3;;;;;;;9.74;56.66602;963.8206;;;;
2019/05/07 06:28:04;;;;;;;10.6;6.9;;;;;;;9.9;54.84961;963.847;;;;
2019/05/07 06:30:30;;;;;;;12.8;7.9;;;;;;;10.04;54.0127;963.7579;;;;
2019/05/07 06:32:55;;;;;;;11.8;7.3;;;;;;;10.33;53.9668;963.8391;;;;
2019/05/07 06:35:20;;;;;;;13.8;7.7;;;;;;;10.29;54.75781;963.8417;;;;
2019/05/07 06:37:45;;;;;;;10.1;7.3;;;;;;;10.48;53.79688;963.8092;;;;
2019/05/07 06:40:22;;;;;;;10.9;7.4;;;;;;;10.62;52.76074;963.7494;;;;
2019/05/07 06:42:53;;;;;;;12.7;7.1;;;;;;;10.73;52.83203;963.8052;;;;
2019/05/07 06:45:09;;;;;;;10;7;;;;;;;10.86;52.97754;963.8339;;;;
2019/05/07 06:47:26;;;;;;;10.9;6.7;;;;;;;11.04;52.11914;963.8517;;;;
2019/05/07 06:49:51;;;;;;;10.9;7.1;;;;;;;11.26;50.67871;963.8342;;;;
2019/05/07 06:52:16;;;;;;;10.4;7.1;;;;;;;11.47;50.31543;963.8416;;;;
2019/05/07 06:54:41;;;;;;;10.5;7.1;;;;;;;11.71;49.15527;963.7912;;;;
2019/05/07 06:57:06;;;;;;;12.8;7.6;;;;;;;11.72;49.34473;963.7547;;;;
2019/05/07 06:59:41;;;;;;;11.6;8;;;;;;;11.64;50.47656;963.8108;;;;
2019/05/07 07:02:03;;;;;;;12.2;7.7;;;;;;;11.91;49.20215;963.695;;;;
2019/05/07 07:04:27;;;;;;;11.9;7.5;;;;;;;11.95;49.65527;963.6779;;;;
2019/05/07 07:10:57;;;;;;;11.8;7.5;;;;;;;12.12;48.64941;963.6705;;;;
2019/05/07 07:12:47;;;;;;;13.3;8.1;;;;;;;12.21;48.24805;963.6893;;;;
2019/05/07 07:15:12;;;;;;;10.8;7.9;;;;;;;12.26;48.79492;963.693;;;;
2019/05/07 07:17:38;;;;;;;13.9;8.9;;;;;;;12.45;48.47559;963.5414;;;;
2019/05/07 07:20:03;;;;;;;16.8;9.5;;;;;;;12.57;47.12207;963.615;;;;
2019/05/07 07:22:30;;;;;;;14.1;8.9;;;;;;;12.55;48.28613;963.5184;;;;
2019/05/07 07:24:55;;;;;;;14;8.8;;;;;;;12.55;47.46289;963.5745;;;;
2019/05/07 07:27:21;;;;;;;15;9.4;;;;;;;12.49;46.83203;963.4941;;;;
2019/05/07 07:30:01;;;;;;;12.7;9;;;;;;;12.6;45.84277;963.5402;;;;
2019/05/07 07:32:12;;;;;;;15.9;9.2;;;;;;;12.61;45.19531;963.4906;;;;
2019/05/07 07:34:44;;;;;;;14.1;9.3;;;;;;;12.66;45.81348;963.5814;;;;
2019/05/07 07:37:18;;;;;;;18.6;9.3;;;;;;;12.87;44.98633;963.4529;;;;
2019/05/07 07:39:30;;;;;;;14.7;8.5;;;;;;;12.82;44.76953;963.5134;;;;
2019/05/07 07:41:57;;;;;;;19.2;9.2;;;;;;;13.01;44.15234;963.505;;;;
2019/05/07 07:44:20;;;;;;;15.9;9.5;;;;;;;13.29;44.91211;963.4672;;;;
2019/05/07 07:46:45;;;;;;;15.5;9.4;;;;;;;13.39;44.65234;963.4959;;;;
2019/05/07 07:49:10;;;;;;;18.2;10;;;;;;;13.26;42.86816;963.4202;;;;
2019/05/07 07:51:36;;;;;;;16.7;9.5;;;;;;;13.43;42.5918;963.4799;;;;
2019/05/07 07:54:02;;;;;;;15;10.2;;;;;;;13.37;41.14551;963.4568;;;;
2019/05/07 08:00:48;;;;;;;15;9.9;;;;;;;13.63;41.4668;963.3817;;;;
2019/05/07 08:02:38;;;;;;;17.6;9.1;;;;;;;13.6;41.76953;963.3756;;;;
2019/05/07 08:04:54;;;;;;;15.5;9.5;;;;;;;13.74;41.87793;963.3962;;;;
2019/05/07 08:07:19;;;;;;;14.4;8.2;;;;;;;13.86;40.54297;963.3358;;;;
2019/05/07 08:09:44;;;;;;;12.1;8.5;;;;;;;13.91;39.1416;963.3388;;;;
2019/05/07 08:12:09;;;;;;;11.5;7.7;;;;;;;14.02;38.14844;963.2573;;;;
2019/05/07 08:14:35;;;;;;;12.6;7.9;;;;;;;14.19;38.80078;963.2603;;;;
2019/05/07 08:17:03;;;;;;;13.1;8.3;;;;;;;14.45;38.07813;963.1858;;;;
2019/05/07 08:19:34;;;;;;;12.8;7;;;;;;;14.43;37.02441;963.1506;;;;
2019/05/07 08:22:20;;;;;;;7.5;4.8;;;;;;;14.04;33.60059;963.197;;;;
2019/05/07 08:24:45;;;;;;;12.9;7.4;;;;;;;14.23;35.3291;963.1523;;;;
2019/05/07 08:27:10;;;;;;;14.4;8.1;;;;;;;13.9;38.14941;963.157;;;;
2019/05/07 08:29:35;;;;;;;12.6;7.2;;;;;;;14.49;37.44336;963.0961;;;;
2019/05/07 08:33:06;;;;;;;14.3;7.9;;;;;;;14.46;37.23926;963.0834;;;;
2019/05/07 08:34:34;;;;;;;14.2;7.3;;;;;;;13.77;35.82227;963.1132;;;;
2019/05/07 08:36:53;;;;;;;13.2;6.9;;;;;;;13.93;34.72559;963.0481;;;;
2019/05/07 08:39:21;;;;;;;11.8;6.3;;;;;;;14.09;33.88672;963.0966;;;;
2019/05/07 08:41:47;;;;;;;11.4;6.8;;;;;;;14.21;33.85059;963.0778;;;;
2019/05/07 08:44:15;;;;;;;13.3;6.3;;;;;;;13.98;33.27637;963.0603;;;;
2019/05/07 08:47:02;;;;;;;7.6;5.1;;;;;;;14;31.10449;962.9947;;;;
2019/05/07 08:49:02;;;;;;;8.1;5;;;;;;;14.13;31.95313;962.9612;;;;
2019/05/07 08:51:27;;;;;;;7.1;5.2;;;;;;;14.09;31.26563;962.912;;;;
2019/05/07 08:54:04;;;;;;;6.4;4.2;;;;;;;14.23;30.50684;962.9074;;;;
2019/05/07 08:56:18;;;;;;;7.6;5.2;;;;;;;14.48;31.28125;962.9442;;;;
2019/05/07 08:58:43;;;;;;;10.5;5.7;;;;;;;14.37;30.86035;962.9119;;;;
2019/05/07 09:01:09;;;;;;;8.8;5;;;;;;;14.17;30.20703;962.8978;;;;
2019/05/07 09:03:43;;;;;;;7.4;4.6;;;;;;;14.19;28.3291;962.7589;;;;
2019/05/07 09:05:59;;;;;;;7.3;4;;;;;;;14.29;28.85547;962.7794;;;;
2019/05/07 09:08:24;;;;;;;8.4;5.6;;;;;;;14.06;29.96289;962.7477;;;;
2019/05/07 09:10:49;;;;;;;11.2;5.6;;;;;;;14.24;30.51953;962.7133;;;;
2019/05/07 09:13:14;;;;;;;9.7;5.5;;;;;;;14.44;30.89941;962.764;;;;
2019/05/07 09:15:40;;;;;;;10.7;6.3;;;;;;;14.33;31.05762;962.7709;;;;
2019/05/07 09:18:05;;;;;;;10.9;6.4;;;;;;;14.56;31.32227;962.6586;;;;
2019/05/07 09:20:30;;;;;;;10.6;6.3;;;;;;;14.6;31.50195;962.7169;;;;
2019/05/07 09:22:55;;;;;;;9.3;6.9;;;;;;;14.31;32.99512;962.7059;;;;
2019/05/07 09:25:20;;;;;;;11.7;7.1;;;;;;;14.21;32.74023;962.7583;;;;
2019/05/07 09:27:47;;;;;;;10.3;6.8;;;;;;;14.47;33.51563;962.6888;;;;
2019/05/07 09:32:48;;;;;;;11.9;6.9;;;;;;;14.66;32.42969;962.692;;;;
2019/05/07 09:35:01;;;;;;;11.4;6.4;;;;;;;14.72;32.90723;962.6677;;;;
2019/05/07 09:37:26;;;;;;;13;7.5;;;;;;;14.54;33.26074;962.5958;;;;
2019/05/07 09:39:50;;;;;;;12.1;6.9;;;;;;;14.72;31.92578;962.6322;;;;
2019/05/07 09:42:16;;;;;;;10.4;6.9;;;;;;;14.88;32.05566;962.5792;;;;
2019/05/07 09:44:41;;;;;;;11.2;6.6;;;;;;;14.94;31.96484;962.611;;;;
2019/05/07 09:47:06;;;;;;;11.4;7.1;;;;;;;14.87;32.00781;962.6071;;;;
2019/05/07 09:49:31;;;;;;;10.5;6.7;;;;;;;15.2;31.92578;962.5836;;;;
2019/05/07 09:51:56;;;;;;;11.2;6.7;;;;;;;15.61;30.3418;962.6054;;;;
2019/05/07 09:54:21;;;;;;;10.4;6.2;;;;;;;15.84;31.12891;962.5726;;;;
2019/05/07 09:56:47;;;;;;;10.2;6.1;;;;;;;16.34;30.78516;962.532;;;;
2019/05/07 09:59:12;;;;;;;10;6.9;;;;;;;16.42;30.43359;962.4551;;;;
2019/05/07 10:01:37;;;;;;;11.7;6.8;;;;;;;16.43;28.89063;962.4219;;;;
2019/05/07 10:04:02;;;;;;;11.8;6.6;;;;;;;16.23;29.67285;962.3994;;;;
2019/05/07 10:06:27;;;;;;;13.2;7.4;;;;;;;16;29.5498;962.4194;;;;
2019/05/07 10:08:52;;;;;;;12.5;6.9;;;;;;;15.77;29.54688;962.4339;;;;
2019/05/07 10:11:26;;;;;;;16;6.8;;;;;;;15.5;29.71875;962.3939;;;;
2019/05/07 10:13:46;;;;;;;10.5;6.9;;;;;;;15.52;30.05176;962.3948;;;;
2019/05/07 10:16:08;;;;;;;10.7;6.5;;;;;;;15.28;30.24902;962.4102;;;;
2019/05/07 10:18:35;;;;;;;10.1;6.6;;;;;;;15.09;31.72754;962.4034;;;;
2019/05/07 10:21:00;;;;;;;10.6;6.5;;;;;;;15.3;31.17383;962.3059;;;;
2019/05/07 10:23:25;;;;;;;12.1;6.7;;;;;;;15.34;30.53711;962.2592;;;;
2019/05/07 10:25:50;;;;;;;10.4;6.6;;;;;;;15.23;30.48145;962.2721;;;;
2019/05/07 10:28:15;;;;;;;10.9;6.6;;;;;;;15.61;30.35449;962.171;;;;
2019/05/07 10:30:40;;;;;;;11.3;6.4;;;;;;;15.49;29.99023;962.2087;;;;
2019/05/07 10:33:05;;;;;;;9.2;6.3;;;;;;;15.28;30.25977;962.1624;;;;
2019/05/07 10:35:31;;;;;;;11.1;6.2;;;;;;;15.53;29.88672;962.2042;;;;
2019/05/07 10:37:57;;;;;;;10.4;6.4;;;;;;;15.38;30.19629;962.1941;;;;
2019/05/07 10:40:22;;;;;;;9.7;6.3;;;;;;;15.51;30.0625;962.1694;;;;
2019/05/07 10:42:48;;;;;;;9.8;6.3;;;;;;;15.82;30.35645;962.1178;;;;
2019/05/07 10:47:47;;;;;;;10.9;6;;;;;;;15.83;28.34082;962.0544;;;;
2019/05/07 10:50:23;;;;;;;11.3;6.1;;;;;;;15.93;29.9248;961.9996;;;;
2019/05/07 10:52:31;;;;;;;9;6;;;;;;;16.08;29.31836;962.0275;;;;
2019/05/07 10:54:56;;;;;;;9.2;6.7;;;;;;;15.5;30.57227;962.0751;;;;
2019/05/07 10:57:21;;;;;;;10.6;6.7;;;;;;;14.81;30.62891;962.0957;;;;
2019/05/07 10:59:46;;;;;;;12.2;6.7;;;;;;;15.11;31.25488;962.0503;;;;
2019/05/07 11:02:16;;;;;;;10.4;6.2;;;;;;;15.18;31.2959;962.0317;;;;
2019/05/07 11:04:37;;;;;;;13;6.9;;;;;;;15.35;31.1416;962.0086;;;;
2019/05/07 11:07:04;;;;;;;12.9;7.1;;;;;;;15.44;30.12891;961.9162;;;;
2019/05/07 11:09:29;;;;;;;11.6;6.3;;;;;;;15.42;30.29395;961.9059;;;;
2019/05/07 11:11:57;;;;;;;9.7;6.3;;;;;;;15.46;30.4502;961.9;;;;
2019/05/07 11:14:22;;;;;;;10.5;6.6;;;;;;;15.43;30.70898;961.923;;;;
2019/05/07 11:19:05;;;;;;;9.2;6.7;;;;;;;15.49;31.04492;961.7709;;;;
2019/05/07 11:21:30;;;;;;;10.9;6.2;;;;;;;15.55;32.13965;961.7067;;;;
2019/05/07 11:23:56;;;;;;;9.6;6.7;;;;;;;15.97;31.25684;961.698;;;;
2019/05/07 11:26:21;;;;;;;12;6.8;;;;;;;16.1;30.67285;961.6552;;;;
2019/05/07 11:28:49;;;;;;;10.1;6.6;;;;;;;16.17;29.5498;961.5759;;;;
2019/05/07 11:31:14;;;;;;;13.6;6.6;;;;;;;15.97;29.88086;961.6022;;;;
2019/05/07 11:33:39;;;;;;;10.2;6.3;;;;;;;15.93;31.29004;961.5139;;;;
2019/05/07 11:36:05;;;;;;;11.2;6.8;;;;;;;16.12;30.56738;961.4763;;;;
2019/05/07 11:38:30;;;;;;;10.3;6.7;;;;;;;15.69;31.26074;961.4921;;;;
2019/05/07 11:40:57;;;;;;;9.9;6.5;;;;;;;15.84;31.12891;961.4398;;;;
2019/05/07 11:43:27;;;;;;;13;7;;;;;;;15.63;31.44629;961.4109;;;;
2019/05/07 11:45:50;;;;;;;11.5;7.5;;;;;;;15.75;30.42285;961.3959;;;;
2019/05/07 11:48:12;;;;;;;10.2;7.3;;;;;;;15.6;31.36133;961.351;;;;
2019/05/07 11:50:44;;;;;;;10.2;6.9;;;;;;;15.83;31.1416;961.3401;;;;
2019/05/07 11:53:05;;;;;;;12.1;7.1;;;;;;;15.8;31.28125;961.2806;;;;
2019/05/07 11:55:28;;;;;;;13.8;7;;;;;;;15.74;31.83301;961.3636;;;;
2019/05/07 11:57:53;;;;;;;10.2;6.7;;;;;;;15.78;30.74609;961.2195;;;;
2019/05/07 12:00:25;;;;;;;10.4;7.1;;;;;;;15.84;31.37793;961.1944;;;;
2019/05/07 12:02:43;;;;;;;10.4;6.6;;;;;;;16.06;31.08594;961.2123;;;;
2019/05/07 12:05:08;;;;;;;11.6;6.8;;;;;;;16.14;29.79688;961.2143;;;;
2019/05/07 12:07:33;;;;;;;10.4;6.7;;;;;;;16.43;29.62695;961.1775;;;;
2019/05/07 12:09:58;;;;;;;10.2;6.7;;;;;;;16.47;31.7207;961.1646;;;;
2019/05/07 12:12:23;;;;;;;10.8;7.1;;;;;;;16.5;29.59668;961.0759;;;;
2019/05/07 12:14:48;;;;;;;10.2;6.9;;;;;;;16.58;29.9707;961.0553;;;;
2019/05/07 12:17:14;;;;;;;9.7;6.8;;;;;;;15.96;31.88477;961.0536;;;;
2019/05/07 12:19:39;;;;;;;8.2;6.4;;;;;;;16.28;31.00684;961.0842;;;;
2019/05/07 12:22:05;;;;;;;11.5;6.8;;;;;;;16.51;30.61816;960.9861;;;;
2019/05/07 12:24:29;;;;;;;10.4;6.9;;;;;;;16.46;31.1377;960.9352;;;;
2019/05/07 12:26:54;;;;;;;11.3;6.5;;;;;;;16.57;31.44238;960.9573;;;;
2019/05/07 12:29:19;;;;;;;11.3;7;;;;;;;16.24;31.81152;960.9659;;;;
2019/05/07 12:32:00;;;;;;;11.7;6.3;;;;;;;16.56;31.26367;960.8931;;;;
2019/05/07 12:34:13;;;;;;;11.2;7.1;;;;;;;16.39;30.38477;960.8566;;;;
2019/05/07 12:36:34;;;;;;;10.5;6.8;;;;;;;16.26;29.47266;960.9104;;;;
2019/05/07 12:39:00;;;;;;;10.2;6.9;;;;;;;16.03;30.62109;960.8508;;;;
2019/05/07 12:41:32;;;;;;;10.5;6.8;;;;;;;15.68;31.15332;960.8412;;;;
2019/05/07 12:43:50;;;;;;;9.6;6.6;;;;;;;15.95;31.39844;960.8187;;;;
2019/05/07 12:46:16;;;;;;;13.2;6.5;;;;;;;15.85;31.99609;960.8331;;;;
2019/05/07 12:48:41;;;;;;;13.5;6.7;;;;;;;15.77;30.61426;960.8457;;;;
2019/05/07 12:51:06;;;;;;;9.8;6.5;;;;;;;15.72;30.75391;960.8284;;;;
2019/05/07 12:53:41;;;;;;;11.8;7.3;;;;;;;15.76;30.22168;960.7947;;;;
2019/05/07 12:55:57;;;;;;;9.5;6.8;;;;;;;15.97;30.65234;960.7527;;;;
2019/05/07 12:58:22;;;;;;;10.8;6.5;;;;;;;16.08;31.14648;960.7314;;;;
2019/05/07 13:01:03;;;;;;;10.9;7;;;;;;;16.16;30.61816;960.6978;;;;
2019/05/07 13:03:17;;;;;;;9;6.4;;;;;;;16.47;31.16211;960.7046;;;;
2019/05/07 13:05:38;;;;;;;11.2;6.3;;;;;;;16.8;31.51953;960.6995;;;;
2019/05/07 13:08:03;;;;;;;9.9;6.9;;;;;;;16.87;29.97656;960.6345;;;;
2019/05/07 13:10:28;;;;;;;9.3;7.2;;;;;;;16.7;29.93066;960.567;;;;
2019/05/07 13:12:55;;;;;;;10.3;7.1;;;;;;;16.22;32.07031;960.5502;;;;
2019/05/07 13:15:20;;;;;;;15.8;7.2;;;;;;;16.43;31.27832;960.6295;;;;
2019/05/07 13:17:47;;;;;;;10.2;7.6;;;;;;;16.59;30.14844;960.5505;;;;
2019/05/07 13:20:12;;;;;;;8.7;6.5;;;;;;;17.07;30.39551;960.5364;;;;
2019/05/07 13:22:39;;;;;;;10.4;7.2;;;;;;;17.02;29.90527;960.4667;;;;
2019/05/07 13:25:04;;;;;;;10.6;7.1;;;;;;;17.18;30.77246;960.4565;;;;
2019/05/07 13:27:30;;;;;;;11.8;7.5;;;;;;;17;30.87891;960.4526;;;;
2019/05/07 13:29:55;;;;;;;10.4;6.8;;;;;;;16.94;30.80371;960.4388;;;;
2019/05/07 13:32:20;;;;;;;11.5;7;;;;;;;16.91;30.08789;960.3716;;;;
2019/05/07 13:34:45;;;;;;;11.1;7.2;;;;;;;17.15;30.50879;960.3613;;;;
2019/05/07 13:37:15;;;;;;;9.6;7;;;;;;;17.06;29.78809;960.3274;;;;
2019/05/07 13:39:39;;;;;;;14;7.6;;;;;;;16.91;29.6123;960.3624;;;;
2019/05/07 13:44:33;;;;;;;11.8;6.9;;;;;;;16.73;30.75293;960.2509;;;;
2019/05/07 13:47:08;;;;;;;10.9;7;;;;;;;16.37;31.38086;960.2438;;;;
2019/05/07 13:49:16;;;;;;;11.7;6.7;;;;;;;16.83;31.74707;960.2516;;;;
2019/05/07 13:51:41;;;;;;;10.8;7.4;;;;;;;16.82;30.77051;960.1047;;;;
2019/05/07 13:54:06;;;;;;;12;7.4;;;;;;;16.68;30.91504;960.2825;;;;
2019/05/07 13:56:31;;;;;;;11.9;7.4;;;;;;;16.88;30.02539;960.1411;;;;
2019/05/07 13:58:56;;;;;;;11.2;7.4;;;;;;;17.4;28.53711;960.0784;;;;
2019/05/07 14:01:35;;;;;;;12.6;6.7;;;;;;;17.75;30.00195;960.0631;;;;
2019/05/07 14:03:47;;;;;;;10.5;6.9;;;;;;;17.47;29.69727;959.9366;;;;
2019/05/07 14:06:36;;;;;;;9;5.9;;;;;;;17.56;30.91797;959.978;;;;
2019/05/07 14:08:39;;;;;;;10.3;6.7;;;;;;;17.2;29.42871;959.9217;;;;
2019/05/07 14:11:03;;;;;;;12;6.6;;;;;;;16.93;28.93457;959.9383;;;;
2019/05/07 14:13:28;;;;;;;10.8;6.8;;;;;;;17.13;29.56738;959.9135;;;;
2019/05/07 14:16:06;;;;;;;12.9;6.8;;;;;;;16.83;29.17871;959.8742;;;;
2019/05/07 14:18:19;;;;;;;9.4;6.3;;;;;;;17.26;29.33789;959.8923;;;;
2019/05/07 14:20:44;;;;;;;10.1;6.2;;;;;;;17.27;28.91016;959.8666;;;;
2019/05/07 14:23:09;;;;;;;8.6;5.8;;;;;;;17.13;30.41113;959.8359;;;;
2019/05/07 14:25:34;;;;;;;9.9;6.2;;;;;;;17.16;29.78418;959.8506;;;;
2019/05/07 14:28:00;;;;;;;9.6;6;;;;;;;17.27;29.3623;959.814;;;;
2019/05/07 14:30:25;;;;;;;9.9;6.2;;;;;;;17.26;28.81348;959.8134;;;;
2019/05/07 14:32:56;;;;;;;9.5;6.2;;;;;;;17.48;28.95996;959.8322;;;;
2019/05/07 14:35:20;;;;;;;9.2;6.2;;;;;;;17.45;29.88672;959.8738;;;;
2019/05/07 14:37:43;;;;;;;10.3;6;;;;;;;17.71;28.89063;959.8301;;;;
2019/05/07 14:40:05;;;;;;;8.7;6;;;;;;;17.7;29.17676;959.8843;;;;
2019/05/07 14:42:35;;;;;;;9.5;6.6;;;;;;;17.45;29.13672;959.9172;;;;
2019/05/07 14:44:55;;;;;;;8.9;5.8;;;;;;;17.73;29.54785;959.861;;;;
2019/05/07 14:47:20;;;;;;;9.2;5.9;;;;;;;18.07;28.82031;959.8423;;;;